createdAt,value
2023-01-10T00:01:38.838Z,56.25
2023-01-10T00:04:05.172Z,58.00
2023-01-10T00:06:31.541Z,63.00
2023-01-10T00:08:57.897Z,64.25
2023-01-10T00:11:42.903Z,61.50
2023-01-10T00:14:09.447Z,56.50
2023-01-10T00:16:37.289Z,59.25
2023-01-10T00:19:03.660Z,58.50
2023-01-10T00:21:31.064Z,59.00
2023-01-10T00:24:08.772Z,56.50
2023-01-10T00:26:35.119Z,57.00
2023-01-10T00:29:01.577Z,51.75
2023-01-10T00:31:27.935Z,58.75
2023-01-10T00:33:54.287Z,62.25
2023-01-10T00:36:20.577Z,63.75
2023-01-10T00:38:46.927Z,63.50
2023-01-10T00:41:31.640Z,74.25
2023-01-10T00:43:58.106Z,68.25
2023-01-10T00:46:24.677Z,72.00
2023-01-10T00:48:51.142Z,70.75
2023-01-10T00:51:17.443Z,70.25
2023-01-10T00:53:43.766Z,62.25
2023-01-10T00:56:10.161Z,67.50
2023-01-10T00:58:36.643Z,64.00
2023-01-10T01:01:03.136Z,60.50
2023-01-10T01:03:29.509Z,51.50
2023-01-10T01:05:55.830Z,51.50
2023-01-10T01:08:22.257Z,51.25
2023-01-10T01:10:48.599Z,63.25
2023-01-10T01:13:19.905Z,55.75
2023-01-10T01:15:46.771Z,53.75
2023-01-10T01:18:14.525Z,49.50
2023-01-10T01:20:41.317Z,54.50
2023-01-10T01:23:08.323Z,49.50
2023-01-10T01:25:34.867Z,49.75
2023-01-10T01:28:01.916Z,57.00
2023-01-10T01:30:28.435Z,62.25
2023-01-10T01:32:55.153Z,66.50
2023-01-10T01:35:21.589Z,64.25
2023-01-10T01:37:47.918Z,59.75
2023-01-10T01:40:15.338Z,69.50
2023-01-10T01:42:42.186Z,60.00
2023-01-10T01:45:08.557Z,62.00
2023-01-10T01:47:41.867Z,57.75
2023-01-10T01:50:29.124Z,56.50
2023-01-10T01:52:57.404Z,47.75
2023-01-10T01:55:25.394Z,57.25
2023-01-10T01:57:52.790Z,63.00
2023-01-10T02:00:19.275Z,57.75
2023-01-10T02:03:01.887Z,62.25
2023-01-10T02:05:30.123Z,52.75
2023-01-10T02:07:57.839Z,53.25
2023-01-10T02:10:29.921Z,52.00
2023-01-10T02:12:58.934Z,57.00
2023-01-10T02:15:25.390Z,56.50
2023-01-10T02:17:52.782Z,59.00
2023-01-10T02:20:21.357Z,58.50
2023-01-10T02:22:53.806Z,47.75
2023-01-10T02:25:35.518Z,43.50
2023-01-10T02:28:11.059Z,47.75
2023-01-10T02:30:47.520Z,48.00
2023-01-10T02:33:13.870Z,50.75
2023-01-10T02:35:51.779Z,38.67
2023-01-10T02:38:26.891Z,37.25
2023-01-10T02:40:56.385Z,43.75
2023-01-10T02:43:26.763Z,48.00
2023-01-10T02:45:59.702Z,44.33
2023-01-10T02:48:26.635Z,41.25
2023-01-10T02:51:03.235Z,41.50
2023-01-10T02:53:33.659Z,36.00
2023-01-10T02:56:07.407Z,46.00
2023-01-10T02:58:43.183Z,34.33
2023-01-10T03:01:24.935Z,42.00
2023-01-10T03:04:05.009Z,34.33
2023-01-10T03:06:41.206Z,33.33
2023-01-10T03:09:21.562Z,38.50
2023-01-10T03:11:49.247Z,39.67
2023-01-10T03:14:26.434Z,41.00
2023-01-10T03:16:54.991Z,42.00
2023-01-10T03:19:23.047Z,42.67
2023-01-10T03:21:53.709Z,48.00
2023-01-10T03:24:25.986Z,44.50
2023-01-10T03:26:55.327Z,40.33
2023-01-10T03:29:25.616Z,36.00
2023-01-10T03:31:54.159Z,44.75
2023-01-10T03:34:21.216Z,38.67
2023-01-10T03:36:51.213Z,41.67
2023-01-10T03:39:17.599Z,39.67
2023-01-10T03:42:00.585Z,41.25
2023-01-10T03:44:44.372Z,44.25
2023-01-10T03:47:19.976Z,39.50
2023-01-10T03:49:48.440Z,46.25
2023-01-10T03:52:16.076Z,36.75
2023-01-10T03:54:43.409Z,40.25
2023-01-10T03:57:14.968Z,35.00
2023-01-10T03:59:41.464Z,41.67
2023-01-10T04:02:08.004Z,41.50
2023-01-10T04:04:34.495Z,44.00
2023-01-10T04:07:00.962Z,42.67
2023-01-10T04:09:27.339Z,33.00
2023-01-10T04:11:53.663Z,55.50
2023-01-10T04:14:20.122Z,43.75
2023-01-10T04:16:46.571Z,46.25
2023-01-10T04:19:12.919Z,55.00
2023-01-10T04:21:39.248Z,61.50
2023-01-10T04:24:05.771Z,61.75
2023-01-10T04:26:32.445Z,62.75
2023-01-10T04:28:58.948Z,68.50
2023-01-10T04:31:27.142Z,72.50
2023-01-10T04:33:53.673Z,67.00
2023-01-10T04:36:20.129Z,68.00
2023-01-10T04:38:46.563Z,60.00
2023-01-10T04:41:12.974Z,73.00
2023-01-10T04:43:39.384Z,59.75
2023-01-10T04:46:05.816Z,66.50
2023-01-10T04:48:33.720Z,67.50
2023-01-10T04:51:00.173Z,68.50
2023-01-10T04:53:26.576Z,72.25
2023-01-10T04:55:52.937Z,69.25
2023-01-10T04:58:19.360Z,66.00
2023-01-10T05:00:45.893Z,66.75
2023-01-10T05:03:12.312Z,72.75
2023-01-10T05:05:38.741Z,73.75
2023-01-10T05:08:05.282Z,67.00
2023-01-10T05:10:31.708Z,61.50
2023-01-10T05:12:58.263Z,64.25
2023-01-10T05:15:24.571Z,66.75
2023-01-10T05:17:57.217Z,71.50
2023-01-10T05:20:23.557Z,64.25
2023-01-10T05:22:49.927Z,62.00
2023-01-10T05:25:16.414Z,76.50
2023-01-10T05:27:43.380Z,70.25
2023-01-10T05:30:11.084Z,77.75
2023-01-10T05:32:37.463Z,80.50
2023-01-10T05:35:04.088Z,81.50
2023-01-10T05:37:30.446Z,79.00
2023-01-10T05:39:56.827Z,82.00
2023-01-10T05:42:23.217Z,75.75
2023-01-10T05:44:49.606Z,78.75
2023-01-10T05:47:15.919Z,73.25
2023-01-10T05:49:42.304Z,81.25
2023-01-10T05:52:08.674Z,85.25
2023-01-10T05:54:34.991Z,82.50
2023-01-10T05:57:01.362Z,83.50
2023-01-10T05:59:28.477Z,81.00
2023-01-10T06:01:57.252Z,85.50
2023-01-10T06:04:23.674Z,80.25
2023-01-10T06:06:50.598Z,79.25
2023-01-10T06:09:19.157Z,82.00
2023-01-10T06:11:45.509Z,70.25
2023-01-10T06:14:11.825Z,75.75
2023-01-10T06:16:38.225Z,83.25
2023-01-10T06:19:04.627Z,70.25
2023-01-10T06:21:31.051Z,87.00
2023-01-10T06:23:58.081Z,89.50
2023-01-10T06:26:24.485Z,106.00
2023-01-10T06:28:50.824Z,121.00
2023-01-10T06:31:17.375Z,112.00
2023-01-10T06:33:44.157Z,84.75
2023-01-10T06:36:10.826Z,97.75
2023-01-10T06:38:37.201Z,105.50
2023-01-10T06:41:13.140Z,96.50
2023-01-10T06:43:40.803Z,86.00
2023-01-10T06:46:09.674Z,94.25
2023-01-10T06:48:36.928Z,90.75
2023-01-10T06:51:04.343Z,94.00
2023-01-10T06:53:30.765Z,86.50
2023-01-10T06:55:57.558Z,91.75
2023-01-10T06:58:24.227Z,83.00
2023-01-10T07:00:50.765Z,100.00
2023-01-10T07:03:17.247Z,98.75
2023-01-10T07:05:43.674Z,83.00
2023-01-10T07:08:10.208Z,80.25
2023-01-10T07:10:36.593Z,89.50
2023-01-10T07:13:02.995Z,88.25
2023-01-10T07:15:30.222Z,90.75
2023-01-10T07:17:58.514Z,75.50
2023-01-10T07:20:25.398Z,94.00
2023-01-10T07:22:58.828Z,90.25
2023-01-10T07:25:26.655Z,101.00
2023-01-10T07:27:55.815Z,102.50
2023-01-10T07:30:25.057Z,97.25
2023-01-10T07:32:58.292Z,102.25
2023-01-10T07:35:27.403Z,94.75
2023-01-10T07:37:53.964Z,95.00
2023-01-10T07:40:20.305Z,94.00
2023-01-10T07:42:46.623Z,91.25
2023-01-10T07:45:13.044Z,91.25
2023-01-10T07:47:39.535Z,72.25
2023-01-10T07:50:06.504Z,101.00
2023-01-10T07:52:33.642Z,108.00
2023-01-10T07:55:00.073Z,73.00
2023-01-10T07:57:26.728Z,94.25
2023-01-10T07:59:53.173Z,93.75
2023-01-10T08:02:19.726Z,89.00
2023-01-10T08:04:46.198Z,94.75
2023-01-10T08:07:12.606Z,91.50
2023-01-10T08:09:38.998Z,101.00
2023-01-10T08:12:05.356Z,99.75
2023-01-10T08:14:31.760Z,97.50
2023-01-10T08:16:58.069Z,87.00
2023-01-10T08:19:24.462Z,81.00
2023-01-10T08:21:50.862Z,85.50
2023-01-10T08:24:17.291Z,88.25
2023-01-10T08:26:43.601Z,81.50
2023-01-10T08:29:10.070Z,79.25
2023-01-10T08:31:36.383Z,80.25
2023-01-10T08:34:02.731Z,90.75
2023-01-10T08:36:30.170Z,94.00
2023-01-10T08:38:56.607Z,87.75
2023-01-10T08:41:23.172Z,80.00
2023-01-10T08:43:50.643Z,72.75
2023-01-10T08:46:17.529Z,77.00
2023-01-10T08:48:43.978Z,80.50
2023-01-10T08:51:10.657Z,78.50
2023-01-10T08:53:38.994Z,69.50
2023-01-10T08:56:05.800Z,79.75
2023-01-10T08:58:32.222Z,78.25
2023-01-10T09:00:58.680Z,72.25
2023-01-10T09:03:25.242Z,79.00
2023-01-10T09:05:51.674Z,79.50
2023-01-10T09:08:18.121Z,82.50
2023-01-10T09:10:44.565Z,77.00
2023-01-10T09:13:11.036Z,82.25
2023-01-10T09:15:38.546Z,82.25
2023-01-10T09:18:06.898Z,73.25
2023-01-10T09:20:34.560Z,61.75
2023-01-10T09:23:04.983Z,71.25
2023-01-10T09:25:31.404Z,91.00
2023-01-10T09:27:58.978Z,78.75
2023-01-10T09:30:25.648Z,70.50
2023-01-10T09:32:52.811Z,56.50
2023-01-10T09:35:19.228Z,66.75
2023-01-10T09:37:45.646Z,66.00
2023-01-10T09:40:16.663Z,60.00
2023-01-10T09:43:01.316Z,61.75
2023-01-10T09:45:36.972Z,68.50
2023-01-10T09:48:05.301Z,63.00
2023-01-10T09:50:36.103Z,58.25
2023-01-10T09:53:05.662Z,57.75
2023-01-10T09:55:33.815Z,64.50
2023-01-10T09:58:02.043Z,78.00
2023-01-10T10:00:35.830Z,70.50
2023-01-10T10:03:05.684Z,66.50
2023-01-10T10:05:32.245Z,74.50
2023-01-10T10:07:59.976Z,75.25
2023-01-10T10:10:38.205Z,73.25
2023-01-10T10:13:16.955Z,74.25
2023-01-10T10:16:07.685Z,53.00
2023-01-10T10:18:37.107Z,62.50
2023-01-10T10:21:07.342Z,72.25
2023-01-10T10:23:58.761Z,71.25
2023-01-10T10:26:35.510Z,83.00
2023-01-10T10:29:17.042Z,62.00
2023-01-10T10:31:49.524Z,64.75
2023-01-10T10:34:18.864Z,62.75
2023-01-10T10:36:51.116Z,66.75
2023-01-10T10:39:40.824Z,73.25
2023-01-10T10:42:11.832Z,56.00
2023-01-10T10:44:44.425Z,64.75
2023-01-10T10:47:20.960Z,61.50
2023-01-10T10:49:52.675Z,55.67
2023-01-10T10:52:34.763Z,57.50
2023-01-10T10:55:01.180Z,46.67
2023-01-10T10:57:28.504Z,59.67
2023-01-10T10:59:56.527Z,50.00
2023-01-10T11:02:27.424Z,51.33
2023-01-10T11:04:56.979Z,49.00
2023-01-10T11:07:24.560Z,65.25
2023-01-10T11:10:10.926Z,53.67
2023-01-10T11:12:38.488Z,52.00
2023-01-10T11:15:05.269Z,37.33
2023-01-10T11:17:34.482Z,41.33
2023-01-10T11:20:00.926Z,59.50
2023-01-10T11:22:28.715Z,44.67
2023-01-10T11:24:56.430Z,48.33
2023-01-10T11:27:28.161Z,60.00
2023-01-10T11:30:01.980Z,72.25
2023-01-10T11:32:35.688Z,50.00
2023-01-10T11:35:03.967Z,73.50
2023-01-10T11:37:32.720Z,90.00
2023-01-10T11:40:08.096Z,93.75
2023-01-10T11:42:34.460Z,96.25
2023-01-10T11:45:19.028Z,90.00
2023-01-10T11:47:50.101Z,98.25
2023-01-10T11:50:20.270Z,94.00
2023-01-10T11:52:48.164Z,74.25
2023-01-10T11:55:19.407Z,44.67
2023-01-10T11:57:46.213Z,64.00
2023-01-10T12:00:13.090Z,83.00
2023-01-10T12:02:42.532Z,81.50
2023-01-10T12:05:19.959Z,65.50
2023-01-10T12:08:10.565Z,68.25
2023-01-10T12:10:36.975Z,80.75
2023-01-10T12:13:16.665Z,111.25
2023-01-10T12:15:43.228Z,63.25
2023-01-10T12:18:11.089Z,72.25
2023-01-10T12:20:48.532Z,66.25
2023-01-10T12:23:19.344Z,71.75
2023-01-10T12:25:46.023Z,94.75
2023-01-10T12:28:23.625Z,93.75
2023-01-10T12:30:51.970Z,120.50
2023-01-10T12:33:27.598Z,83.50
2023-01-10T12:36:05.605Z,96.00
2023-01-10T12:39:06.500Z,87.00
2023-01-10T12:41:57.191Z,93.75
2023-01-10T12:44:26.830Z,91.00
2023-01-10T12:47:13.699Z,81.50
2023-01-10T12:49:52.928Z,74.00
2023-01-10T12:52:31.082Z,75.25
2023-01-10T12:54:58.009Z,80.00
2023-01-10T12:57:37.857Z,74.25
2023-01-10T13:00:06.062Z,71.50
2023-01-10T13:02:40.217Z,74.00
2023-01-10T13:05:14.736Z,73.50
2023-01-10T13:07:41.203Z,79.50
2023-01-10T13:10:09.601Z,77.75
2023-01-10T13:12:38.456Z,73.75
2023-01-10T13:15:25.153Z,80.75
2023-01-10T13:17:54.786Z,74.75
2023-01-10T13:20:24.624Z,77.00
2023-01-10T13:22:52.548Z,81.25
2023-01-10T13:25:21.498Z,73.50
2023-01-10T13:27:52.194Z,75.50
2023-01-10T13:30:31.070Z,71.75
2023-01-10T13:33:05.344Z,65.25
2023-01-10T13:35:42.428Z,81.00
2023-01-10T13:38:20.367Z,69.25
2023-01-10T13:40:58.083Z,68.25
2023-01-10T13:43:34.288Z,70.75
2023-01-10T13:46:23.736Z,66.75
2023-01-10T13:48:50.252Z,64.75
2023-01-10T13:51:18.729Z,68.75
2023-01-10T13:53:47.566Z,69.75
2023-01-10T13:56:32.332Z,76.00
2023-01-10T13:59:17.377Z,62.00
2023-01-10T14:02:12.449Z,66.50
2023-01-10T14:04:45.664Z,73.75
2023-01-10T14:07:21.938Z,72.00
2023-01-10T14:09:49.751Z,79.50
2023-01-10T14:12:25.261Z,84.50
2023-01-10T14:14:59.229Z,77.75
2023-01-10T14:17:30.253Z,89.75
2023-01-10T14:20:06.049Z,106.75
2023-01-10T14:22:36.802Z,80.00
2023-01-10T14:25:05.415Z,97.50
2023-01-10T14:27:47.705Z,83.75
2023-01-10T14:30:23.106Z,88.75
2023-01-10T14:32:51.428Z,120.00
2023-01-10T14:35:19.561Z,83.50
2023-01-10T14:37:50.376Z,84.50
2023-01-10T14:40:34.534Z,83.00
2023-01-10T14:43:04.238Z,83.00
2023-01-10T14:45:33.623Z,88.00
2023-01-10T14:47:59.994Z,76.00
2023-01-10T14:50:32.438Z,79.75
2023-01-10T14:52:59.594Z,67.75
2023-01-10T14:55:26.045Z,73.25
2023-01-10T14:57:53.091Z,57.75
2023-01-10T15:00:24.352Z,59.25
2023-01-10T15:02:50.714Z,79.50
2023-01-10T15:05:19.015Z,65.50
2023-01-10T15:07:45.439Z,60.25
2023-01-10T15:10:35.161Z,66.00
2023-01-10T15:13:03.403Z,88.00
2023-01-10T15:15:34.470Z,68.25
2023-01-10T15:18:02.596Z,75.00
2023-01-10T15:20:29.373Z,64.75
2023-01-10T15:23:01.329Z,79.00
2023-01-10T15:25:30.442Z,77.50
2023-01-10T15:27:57.667Z,71.25
2023-01-10T15:30:25.397Z,67.75
2023-01-10T15:32:54.190Z,78.00
2023-01-10T15:35:27.458Z,62.50
2023-01-10T15:38:18.104Z,70.50
2023-01-10T15:40:44.591Z,69.50
2023-01-10T15:43:20.079Z,75.75
2023-01-10T15:45:47.797Z,73.75
2023-01-10T15:48:40.614Z,72.00
2023-01-10T15:51:13.398Z,64.00
2023-01-10T15:53:56.327Z,64.00
2023-01-10T15:56:26.836Z,73.75
2023-01-10T15:58:53.677Z,138.25
2023-01-10T16:01:20.305Z,92.75
2023-01-10T16:03:48.769Z,92.75
2023-01-10T16:06:20.754Z,85.00
2023-01-10T16:08:48.656Z,76.75
2023-01-10T16:11:40.775Z,73.75
2023-01-10T16:14:07.174Z,73.75
2023-01-10T16:16:33.633Z,73.50
2023-01-10T16:19:02.698Z,61.75
2023-01-10T16:21:32.984Z,68.50
2023-01-10T16:23:59.432Z,48.25
2023-01-10T16:26:25.881Z,70.25
2023-01-10T16:28:52.316Z,68.50
2023-01-10T16:31:18.721Z,80.50
2023-01-10T16:33:45.613Z,80.75
2023-01-10T16:36:16.865Z,236.33
2023-01-10T16:38:43.661Z,256.75
2023-01-10T16:41:29.802Z,253.00
2023-01-10T16:43:56.346Z,114.75
2023-01-10T16:46:23.321Z,96.25
2023-01-10T16:48:52.546Z,63.75
2023-01-10T16:51:20.340Z,75.00
2023-01-10T16:53:47.226Z,81.75
2023-01-10T16:56:14.727Z,81.75
2023-01-10T16:58:41.059Z,76.25
2023-01-10T17:01:10.701Z,50.25
2023-01-10T17:03:39.724Z,65.00
2023-01-10T17:06:06.194Z,60.75
2023-01-10T17:08:32.694Z,64.00
2023-01-10T17:11:00.849Z,57.00
2023-01-10T17:13:28.823Z,55.50
2023-01-10T17:15:55.362Z,60.00
2023-01-10T17:18:24.838Z,54.75
2023-01-10T17:20:51.746Z,53.50
2023-01-10T17:23:18.107Z,61.00
2023-01-10T17:25:47.111Z,64.25
2023-01-10T17:28:13.480Z,67.50
2023-01-10T17:30:40.444Z,75.50
2023-01-10T17:33:10.849Z,61.75
2023-01-10T17:35:44.262Z,64.75
2023-01-10T17:38:11.895Z,73.75
2023-01-10T17:40:41.940Z,91.00
2023-01-10T17:43:08.428Z,57.00
2023-01-10T17:45:34.872Z,87.00
2023-01-10T17:48:01.267Z,79.00
2023-01-10T17:50:27.900Z,72.75
2023-01-10T17:52:54.394Z,68.00
2023-01-10T17:55:20.782Z,72.25
2023-01-10T17:57:47.273Z,69.75
2023-01-10T18:00:14.562Z,73.00
2023-01-10T18:02:40.996Z,76.75
2023-01-10T18:05:07.698Z,82.50
2023-01-10T18:07:34.193Z,88.25
2023-01-10T18:10:00.775Z,100.75
2023-01-10T18:12:27.125Z,92.25
2023-01-10T18:14:53.523Z,68.50
2023-01-10T18:17:19.866Z,101.00
2023-01-10T18:19:46.780Z,103.75
2023-01-10T18:22:31.810Z,89.50
2023-01-10T18:25:02.509Z,99.25
2023-01-10T18:27:34.867Z,105.50
2023-01-10T18:30:01.279Z,112.00
2023-01-10T18:32:27.647Z,102.25
2023-01-10T18:34:54.089Z,103.00
2023-01-10T18:37:20.601Z,90.00
2023-01-10T18:39:48.036Z,181.75
2023-01-10T18:42:14.397Z,197.67
2023-01-10T18:44:41.374Z,228.25
2023-01-10T18:47:07.869Z,401.25
2023-01-10T18:49:34.708Z,202.67
2023-01-10T18:52:01.089Z,247.67
2023-01-10T18:54:28.213Z,154.00
2023-01-10T18:56:57.972Z,146.00
2023-01-10T18:59:24.417Z,120.25
2023-01-10T19:01:50.970Z,158.75
2023-01-10T19:04:18.562Z,123.00
2023-01-10T19:06:46.329Z,104.50
2023-01-10T19:09:12.935Z,125.50
2023-01-10T19:11:39.351Z,97.50
2023-01-10T19:14:05.726Z,91.75
2023-01-10T19:16:32.409Z,80.75
2023-01-10T19:19:00.973Z,88.50
2023-01-10T19:21:27.993Z,87.00
2023-01-10T19:23:57.991Z,82.50
2023-01-10T19:26:24.813Z,85.25
2023-01-10T19:28:51.478Z,83.50
2023-01-10T19:31:19.071Z,83.50
2023-01-10T19:33:47.649Z,89.25
2023-01-10T19:36:14.760Z,99.50
2023-01-10T19:38:41.142Z,91.75
2023-01-10T19:41:07.628Z,88.50
2023-01-10T19:43:34.088Z,85.75
2023-01-10T19:46:04.776Z,88.00
2023-01-10T19:48:31.338Z,66.50
2023-01-10T19:51:03.914Z,83.00
2023-01-10T19:53:30.363Z,93.25
2023-01-10T19:56:03.796Z,91.75
2023-01-10T19:58:30.555Z,83.25
2023-01-10T20:00:56.948Z,89.00
2023-01-10T20:03:23.375Z,86.25
2023-01-10T20:05:49.798Z,82.00
2023-01-10T20:08:16.210Z,80.75
2023-01-10T20:10:44.181Z,87.75
2023-01-10T20:13:10.554Z,84.25
2023-01-10T20:15:36.996Z,76.25
2023-01-10T20:18:03.430Z,74.00
2023-01-10T20:20:31.110Z,78.25
2023-01-10T20:22:57.624Z,81.00
2023-01-10T20:25:24.017Z,57.75
2023-01-10T20:27:50.426Z,72.25
2023-01-10T20:30:18.187Z,79.75
2023-01-10T20:32:44.651Z,80.25
2023-01-10T20:35:11.812Z,77.25
2023-01-10T20:37:38.152Z,71.00
2023-01-10T20:40:04.722Z,72.50
2023-01-10T20:42:32.549Z,70.25
2023-01-10T20:45:01.286Z,65.00
2023-01-10T20:47:28.585Z,74.25
2023-01-10T20:49:54.929Z,75.50
2023-01-10T20:52:21.935Z,72.00
2023-01-10T20:54:48.292Z,78.00
2023-01-10T20:57:14.726Z,82.75
2023-01-10T20:59:41.167Z,88.00
2023-01-10T21:02:10.252Z,86.25
2023-01-10T21:04:36.802Z,90.75
2023-01-10T21:07:03.257Z,77.00
2023-01-10T21:09:29.738Z,89.75
2023-01-10T21:12:07.508Z,89.00
2023-01-10T21:14:42.843Z,88.75
2023-01-10T21:17:09.166Z,75.75
2023-01-10T21:19:35.535Z,72.75
2023-01-10T21:22:01.874Z,80.00
2023-01-10T21:24:28.261Z,75.75
2023-01-10T21:26:54.614Z,77.75
2023-01-10T21:29:20.976Z,69.25
2023-01-10T21:31:47.522Z,69.50
2023-01-10T21:34:13.963Z,72.00
2023-01-10T21:36:40.330Z,76.25
2023-01-10T21:39:06.893Z,74.50
2023-01-10T21:41:51.955Z,75.75
2023-01-10T21:44:20.270Z,72.25
2023-01-10T21:46:48.807Z,75.75
2023-01-10T21:49:15.230Z,63.00
2023-01-10T21:51:41.672Z,69.50
2023-01-10T21:54:08.051Z,74.00
2023-01-10T21:56:34.426Z,72.00
2023-01-10T21:59:00.874Z,71.75
2023-01-10T22:01:27.450Z,65.50
2023-01-10T22:03:53.897Z,72.75
2023-01-10T22:06:20.467Z,65.00
2023-01-10T22:08:46.915Z,69.75
2023-01-10T22:11:13.383Z,79.00
2023-01-10T22:13:39.852Z,73.25
2023-01-10T22:16:07.063Z,74.50
2023-01-10T22:18:33.565Z,75.25
2023-01-10T22:21:00.112Z,70.75
2023-01-10T22:23:27.688Z,66.00
2023-01-10T22:26:01.282Z,66.50
2023-01-10T22:28:27.818Z,65.75
2023-01-10T22:30:54.298Z,68.25
2023-01-10T22:33:20.747Z,63.75
2023-01-10T22:35:47.127Z,64.50
2023-01-10T22:38:13.657Z,64.25
2023-01-10T22:40:40.020Z,60.75
2023-01-10T22:43:06.408Z,58.50
2023-01-10T22:45:33.420Z,62.25
2023-01-10T22:47:59.880Z,61.50
2023-01-10T22:50:26.435Z,60.50
2023-01-10T22:52:52.746Z,68.75
2023-01-10T22:55:19.193Z,65.25
2023-01-10T22:57:47.553Z,60.75
2023-01-10T23:00:14.607Z,62.00
2023-01-10T23:02:41.119Z,46.25
2023-01-10T23:05:07.705Z,55.75
2023-01-10T23:07:34.164Z,54.25
2023-01-10T23:10:00.633Z,62.75
2023-01-10T23:12:27.080Z,59.00
2023-01-10T23:14:53.446Z,55.50
2023-01-10T23:17:19.834Z,52.25
2023-01-10T23:19:46.225Z,57.00
2023-01-10T23:22:12.682Z,65.50
2023-01-10T23:24:39.054Z,68.75
2023-01-10T23:27:05.474Z,63.00
2023-01-10T23:29:31.897Z,61.75
2023-01-10T23:31:58.366Z,61.50
2023-01-10T23:34:24.827Z,67.00
2023-01-10T23:36:51.267Z,68.75
2023-01-10T23:39:18.991Z,63.50
2023-01-10T23:41:45.455Z,67.25
2023-01-10T23:44:11.811Z,66.75
2023-01-10T23:46:38.207Z,62.50
2023-01-10T23:49:04.786Z,60.75
2023-01-10T23:51:31.180Z,74.00
2023-01-10T23:53:57.566Z,69.25
2023-01-10T23:56:23.906Z,59.00
2023-01-10T23:58:50.979Z,57.25
